Time;durP1;ratioP1;P1;durP2;ratioP2;P2;SDS_P1;SDS_P2;PMS_P1;PMS_P2;Temp;Humidity;BMP_temperature;BMP_pressure;BME280_temperature;BME280_humidity;BME280_pressure;Samples;Min_cycle;Max_cycle;Signal;HPM_P1;HPM_P2
2021/03/28 00:00:55;;;;;;;18.75;8.43;;;;;;;7.24;57.73;100926.50;5067730;28;20044;-77
2021/03/28 00:03:28;;;;;;;21.23;9.77;;;;;;;7.29;57.82;100929.91;5067835;28;20127;-78
2021/03/28 00:06:12;;;;;;;13.55;6.93;;;;;;;7.27;57.64;100916.00;5065167;28;20567;-77
2021/03/28 00:08:40;;;;;;;12.77;6.28;;;;;;;7.14;57.98;100927.50;5065023;28;20044;-77
2021/03/28 00:11:18;;;;;;;19.08;8.90;;;;;;;6.99;58.34;100926.81;5069861;28;20051;-77
2021/03/28 00:13:49;;;;;;;87.32;38.75;;;;;;;7.00;58.16;100923.34;5066102;28;20051;-76
2021/03/28 00:16:16;;;;;;;77.80;36.90;;;;;;;6.87;58.25;100927.00;5066468;28;20047;-78
2021/03/28 00:18:56;;;;;;;59.65;24.55;;;;;;;6.74;58.67;100935.81;5068682;28;20137;-77
2021/03/28 00:21:26;;;;;;;53.92;23.70;;;;;;;6.62;58.84;100930.75;5068141;28;20048;-77
2021/03/28 00:23:55;;;;;;;44.28;19.98;;;;;;;6.45;59.13;100917.03;5063295;28;20140;-78
2021/03/28 00:26:28;;;;;;;111.88;48.63;;;;;;;6.31;59.52;100919.81;5063686;28;20057;-77
2021/03/28 00:29:07;;;;;;;76.38;36.13;;;;;;;6.17;59.56;100922.53;5067051;28;20036;-77
2021/03/28 00:31:37;;;;;;;29.30;14.98;;;;;;;6.10;59.67;100926.09;5069368;28;20041;-77
2021/03/28 00:34:13;;;;;;;15.88;9.10;;;;;;;5.99;59.83;100922.72;5067915;28;20403;-78
2021/03/28 00:36:45;;;;;;;14.50;7.90;;;;;;;5.92;59.98;100923.66;5066840;28;20087;-79
2021/03/28 00:39:17;;;;;;;24.25;11.73;;;;;;;5.82;60.23;100926.28;5067177;28;20075;-77
2021/03/28 00:41:55;;;;;;;26.30;11.45;;;;;;;5.74;60.16;100917.69;5067076;28;20053;-78
2021/03/28 00:44:23;;;;;;;27.75;12.25;;;;;;;5.70;60.27;100926.38;5063552;28;20488;-78
2021/03/28 00:46:56;;;;;;;28.52;13.73;;;;;;;5.61;60.27;100926.44;5068040;28;20073;-77
2021/03/28 00:49:26;;;;;;;27.85;13.90;;;;;;;5.56;60.68;100925.63;5067406;28;20139;-77
2021/03/28 00:51:55;;;;;;;22.15;11.60;;;;;;;5.51;60.62;100930.84;5068880;28;20472;-77
2021/03/28 00:54:36;;;;;;;28.42;12.38;;;;;;;5.44;60.52;100934.38;5067630;28;20139;-77
2021/03/28 00:57:05;;;;;;;24.75;10.45;;;;;;;5.39;60.67;100927.47;5068400;28;20068;-79
2021/03/28 00:59:36;;;;;;;30.52;12.85;;;;;;;5.32;61.11;100928.38;5068695;28;20132;-77
2021/03/28 01:02:14;;;;;;;28.80;13.73;;;;;;;5.25;60.94;100931.91;5070006;28;20044;-77
2021/03/28 01:05:13;;;;;;;29.08;11.32;;;;;;;5.20;61.20;100937.09;5070898;28;20037;-77
2021/03/28 01:07:48;;;;;;;18.45;8.40;;;;;;;5.14;61.26;100938.00;5071350;28;20063;-77
2021/03/28 01:10:45;;;;;;;17.48;8.02;;;;;;;5.09;61.40;100933.72;5071468;28;20135;-77
2021/03/28 01:13:40;;;;;;;14.45;6.78;;;;;;;5.04;61.52;100946.72;5066696;28;20063;-78
2021/03/28 01:16:47;;;;;;;9.48;5.55;;;;;;;4.97;61.53;100945.00;5069922;28;20078;-77
2021/03/28 01:19:35;;;;;;;12.18;6.05;;;;;;;4.92;61.70;100956.31;5070673;28;20132;-77
2021/03/28 01:22:08;;;;;;;10.73;6.10;;;;;;;4.86;61.74;100954.59;5070540;28;20053;-78
2021/03/28 01:24:44;;;;;;;12.48;6.85;;;;;;;4.89;61.73;100952.00;5064907;28;20073;-78
2021/03/28 01:27:23;;;;;;;14.15;5.43;;;;;;;4.90;61.65;100964.09;5070959;28;20409;-77
2021/03/28 01:29:56;;;;;;;12.18;6.75;;;;;;;4.87;61.56;100957.19;5071579;28;20075;-78
2021/03/28 01:32:31;;;;;;;8.70;5.32;;;;;;;4.76;61.96;100948.56;5070044;28;20331;-78
2021/03/28 01:35:04;;;;;;;13.07;5.57;;;;;;;4.72;62.08;100952.03;5070680;28;20076;-78
2021/03/28 01:37:40;;;;;;;14.65;6.18;;;;;;;4.69;62.20;100951.19;5066970;28;20413;-73
2021/03/28 01:40:12;;;;;;;12.13;6.57;;;;;;;4.66;62.14;100948.63;5067765;28;20152;-73
2021/03/28 01:42:59;;;;;;;14.00;6.20;;;;;;;4.58;62.14;100957.31;5069625;28;20037;-77
2021/03/28 01:45:34;;;;;;;9.68;5.63;;;;;;;4.53;62.42;100951.22;5069538;28;20075;-77
2021/03/28 01:48:31;;;;;;;10.93;5.63;;;;;;;4.48;62.59;100952.97;5067977;28;20526;-78
2021/03/28 01:51:22;;;;;;;13.45;6.25;;;;;;;4.46;62.66;100961.66;5067152;28;20048;-78
2021/03/28 01:53:58;;;;;;;14.13;5.68;;;;;;;4.42;62.50;100971.19;5069945;28;20037;-77
2021/03/28 01:56:32;;;;;;;11.73;6.38;;;;;;;4.38;62.62;100977.25;5067620;28;20468;-77
2021/03/28 01:59:08;;;;;;;9.52;5.80;;;;;;;4.35;62.72;100968.56;5070112;28;20051;-78
2021/03/28 02:01:44;;;;;;;15.70;7.35;;;;;;;4.33;62.83;100971.16;5063146;28;20053;-77
2021/03/28 02:04:24;;;;;;;9.48;6.03;;;;;;;4.32;62.85;100964.25;5069022;28;20110;-77
2021/03/28 02:07:13;;;;;;;11.98;6.53;;;;;;;4.28;62.86;100968.59;5070009;28;20040;-78
2021/03/28 02:09:49;;;;;;;13.88;6.15;;;;;;;4.26;62.86;100972.06;5068571;28;20045;-77
2021/03/28 02:12:20;;;;;;;12.02;7.10;;;;;;;4.25;62.90;100967.72;5067082;28;20139;-77
2021/03/28 02:15:10;;;;;;;11.85;6.55;;;;;;;4.23;62.92;100974.66;5065608;28;20051;-78
2021/03/28 02:17:54;;;;;;;9.60;5.60;;;;;;;4.20;63.08;100962.56;5054500;28;20057;-77
2021/03/28 02:20:37;;;;;;;14.70;6.90;;;;;;;4.17;63.14;100961.69;5072795;28;20072;-77
2021/03/28 02:23:13;;;;;;;9.00;5.93;;;;;;;4.16;63.06;100976.38;5071121;28;20474;-77
2021/03/28 02:25:49;;;;;;;14.20;6.53;;;;;;;4.13;63.39;100971.19;5073940;28;20186;-77
2021/03/28 02:28:25;;;;;;;13.55;6.78;;;;;;;4.12;63.23;100972.06;5083408;28;20464;-79
2021/03/28 02:30:57;;;;;;;10.10;5.85;;;;;;;4.09;63.30;100981.56;5073305;28;20143;-77
2021/03/28 02:33:30;;;;;;;10.40;6.22;;;;;;;4.08;63.46;100979.84;5068763;28;20076;-77
2021/03/28 02:36:14;;;;;;;10.70;6.90;;;;;;;4.07;63.33;100985.91;5072232;28;20458;-77
2021/03/28 02:39:10;;;;;;;12.18;6.70;;;;;;;4.05;63.36;100985.91;5068195;28;20083;-77
2021/03/28 02:41:44;;;;;;;11.00;6.75;;;;;;;4.05;63.37;100993.69;5069784;28;20480;-78
2021/03/28 02:44:21;;;;;;;12.98;6.55;;;;;;;4.03;63.59;100995.44;5066697;28;20105;-77
2021/03/28 02:46:57;;;;;;;10.02;5.93;;;;;;;4.03;63.44;101002.34;5069423;28;20546;-77
2021/03/28 02:49:40;;;;;;;11.38;6.45;;;;;;;4.05;63.29;100996.28;5070337;28;20036;-77
2021/03/28 02:52:19;;;;;;;10.15;6.00;;;;;;;4.11;63.36;101003.19;5070077;28;20393;-76
2021/03/28 02:55:08;;;;;;;11.45;5.78;;;;;;;4.10;63.53;101004.06;5070303;28;20040;-78
2021/03/28 02:57:44;;;;;;;10.52;5.88;;;;;;;4.10;63.17;101006.66;5067366;28;20055;-77
2021/03/28 03:00:34;;;;;;;11.60;6.05;;;;;;;4.10;63.63;101006.66;5068174;28;20072;-78
2021/03/28 03:03:22;;;;;;;14.55;6.72;;;;;;;4.21;63.26;101007.53;5070709;28;20135;-79
2021/03/28 03:06:09;;;;;;;12.23;6.22;;;;;;;4.25;62.97;101011.84;5067656;28;20488;-79
2021/03/28 03:08:41;;;;;;;10.90;5.90;;;;;;;4.25;63.37;101010.13;5069927;28;20052;-78
2021/03/28 03:11:23;;;;;;;9.90;6.25;;;;;;;4.32;63.16;101016.16;5071266;28;20072;-78
2021/03/28 03:14:10;;;;;;;10.27;5.57;;;;;;;4.41;62.97;101018.78;5068625;28;20140;-78
2021/03/28 03:17:02;;;;;;;11.13;5.80;;;;;;;4.55;62.66;101023.94;5070266;28;20124;-78
2021/03/28 03:19:56;;;;;;;16.13;6.75;;;;;;;4.75;62.32;101029.94;5065225;28;20068;-78
2021/03/28 03:23:06;;;;;;;11.65;6.00;;;;;;;4.98;61.81;101031.63;5065896;28;20127;-79
2021/03/28 03:26:03;;;;;;;10.10;5.80;;;;;;;5.07;61.66;101031.63;5065788;28;20076;-76
2021/03/28 03:28:52;;;;;;;10.48;5.13;;;;;;;5.04;61.82;101029.91;5062017;28;20052;-77
2021/03/28 03:31:50;;;;;;;9.70;5.90;;;;;;;5.04;61.93;101032.50;5068317;28;20079;-77
2021/03/28 03:34:58;;;;;;;10.75;5.30;;;;;;;5.12;61.63;101040.25;5066379;28;21657;-78
2021/03/28 03:37:57;;;;;;;8.93;5.03;;;;;;;5.22;61.53;101035.91;5050687;28;20056;-76
2021/03/28 03:40:41;;;;;;;11.43;6.03;;;;;;;5.36;61.22;101045.34;5069520;28;20048;-78
2021/03/28 03:43:23;;;;;;;11.60;4.93;;;;;;;5.35;61.18;101043.63;5068344;28;20171;-77
2021/03/28 03:46:04;;;;;;;9.35;5.20;;;;;;;5.28;61.40;101048.88;5065305;28;20123;-78
2021/03/28 03:48:43;;;;;;;9.43;5.95;;;;;;;5.25;61.59;101048.88;5068319;28;20048;-78
2021/03/28 03:51:32;;;;;;;8.27;5.22;;;;;;;5.28;61.43;101056.66;5071208;28;20041;-77
2021/03/28 03:54:03;;;;;;;10.02;5.53;;;;;;;5.33;61.26;101050.56;5068433;28;20047;-78
2021/03/28 03:56:41;;;;;;;7.82;5.13;;;;;;;5.33;61.30;101057.50;5068038;28;20448;-77
2021/03/28 03:59:19;;;;;;;8.02;5.63;;;;;;;5.33;61.22;101054.91;5069275;28;20048;-77
2021/03/28 04:01:57;;;;;;;10.20;4.85;;;;;;;5.33;61.39;101060.09;5070935;28;20052;-77
2021/03/28 04:04:34;;;;;;;10.13;5.50;;;;;;;5.37;61.23;101062.69;5071599;28;20161;-78
2021/03/28 04:07:37;;;;;;;10.13;5.50;;;;;;;5.40;61.38;101067.00;5071013;28;20044;-75
2021/03/28 04:10:20;;;;;;;8.57;4.45;;;;;;;5.45;61.06;101073.06;5029305;28;20087;-73
2021/03/28 04:12:59;;;;;;;11.00;5.13;;;;;;;5.47;60.91;101069.59;5067247;28;20300;-74
2021/03/28 04:15:34;;;;;;;12.30;5.32;;;;;;;5.46;61.00;101072.19;5066898;28;20151;-74
2021/03/28 04:18:54;;;;;;;8.27;4.90;;;;;;;5.32;61.54;101066.19;5069963;28;20579;-75
2021/03/28 04:21:30;;;;;;;10.98;5.97;;;;;;;5.09;61.79;101074.91;5025814;28;20393;-75
2021/03/28 04:24:12;;;;;;;10.48;5.30;;;;;;;4.99;61.90;101081.00;5068541;28;20143;-73
2021/03/28 04:26:59;;;;;;;7.15;4.88;;;;;;;4.96;62.12;101086.19;5067678;28;20055;-74
2021/03/28 04:29:26;;;;;;;15.55;5.38;;;;;;;4.97;61.97;101087.94;5068052;28;20136;-74
2021/03/28 04:32:17;;;;;;;10.70;5.55;;;;;;;5.04;61.79;101089.66;5068404;28;20051;-76
2021/03/28 04:35:19;;;;;;;9.68;6.25;;;;;;;5.32;61.22;101094.78;5069930;28;20143;-74
2021/03/28 04:37:58;;;;;;;6.82;4.63;;;;;;;5.37;60.84;101098.22;5066554;28;20061;-76
2021/03/28 04:40:47;;;;;;;9.43;4.88;;;;;;;5.45;60.83;101106.88;5072565;28;20049;-76
2021/03/28 04:43:40;;;;;;;9.50;5.03;;;;;;;5.63;60.60;101101.59;5034729;28;20056;-75
2021/03/28 04:46:39;;;;;;;8.57;5.20;;;;;;;5.73;60.37;101102.41;5074463;28;20125;-75
2021/03/28 04:49:18;;;;;;;6.68;4.85;;;;;;;5.82;60.09;101112.75;5073084;28;20076;-74
2021/03/28 04:52:11;;;;;;;8.52;5.50;;;;;;;5.88;60.06;101112.75;5071740;28;20068;-74
2021/03/28 04:55:00;;;;;;;12.68;5.15;;;;;;;5.97;59.96;101117.06;5070266;28;20500;-75
2021/03/28 04:57:40;;;;;;;11.15;5.57;;;;;;;6.11;59.78;101120.44;5069849;28;20083;-75
2021/03/28 05:00:50;;;;;;;10.02;5.50;;;;;;;6.26;59.43;101120.34;5072632;28;20044;-75
2021/03/28 05:03:46;;;;;;;8.48;5.50;;;;;;;6.44;59.29;101127.16;5070385;28;20048;-75
2021/03/28 05:06:38;;;;;;;12.20;7.47;;;;;;;6.55;58.81;101127.09;5070827;28;20052;-75
2021/03/28 05:09:22;;;;;;;14.93;9.20;;;;;;;6.62;58.73;101134.81;5071338;28;20055;-74
2021/03/28 05:12:15;;;;;;;20.63;9.65;;;;;;;6.92;58.24;101138.94;5073967;28;20476;-75
2021/03/28 05:15:21;;;;;;;15.98;6.53;;;;;;;7.07;57.86;101131.81;5070540;28;20503;-76
2021/03/28 05:18:29;;;;;;;13.48;5.88;;;;;;;7.01;58.01;101141.44;5066881;28;20448;-75
2021/03/28 05:21:36;;;;;;;10.45;6.18;;;;;;;7.23;57.73;101143.81;5073182;28;20041;-75
2021/03/28 05:24:31;;;;;;;10.40;5.82;;;;;;;7.20;57.83;101149.06;5071439;28;20047;-75
2021/03/28 05:27:25;;;;;;;10.77;5.82;;;;;;;7.11;58.02;101150.06;5067421;28;20451;-75
2021/03/28 05:30:21;;;;;;;16.35;6.95;;;;;;;7.19;57.92;101163.00;5070294;28;20074;-75
2021/03/28 05:33:18;;;;;;;14.38;5.22;;;;;;;7.20;57.71;101169.94;5069321;28;20479;-75
2021/03/28 05:36:09;;;;;;;12.77;5.78;;;;;;;7.25;57.67;101170.75;5073040;28;20079;-75
2021/03/28 05:39:05;;;;;;;13.77;6.15;;;;;;;7.33;57.33;101177.63;5070320;28;20217;-74
2021/03/28 05:41:50;;;;;;;11.45;6.50;;;;;;;7.30;57.27;101176.81;5073029;28;20354;-74
2021/03/28 05:44:47;;;;;;;11.00;6.07;;;;;;;7.25;57.39;101186.41;5068074;28;20134;-74
2021/03/28 05:47:24;;;;;;;12.95;6.47;;;;;;;7.20;57.68;101193.41;5070744;28;20036;-74
2021/03/28 05:50:19;;;;;;;16.75;7.13;;;;;;;7.27;57.34;101195.06;5068738;28;20131;-74
2021/03/28 05:53:15;;;;;;;11.25;6.97;;;;;;;7.40;57.10;101204.50;5070550;28;20040;-75
2021/03/28 05:56:16;;;;;;;16.05;7.18;;;;;;;7.56;56.71;101200.00;5068244;28;20061;-75
2021/03/28 05:59:00;;;;;;;13.25;7.25;;;;;;;7.81;56.15;101208.41;5060471;28;20151;-76
2021/03/28 06:02:01;;;;;;;13.05;6.70;;;;;;;7.93;55.85;101206.53;5070440;28;20132;-74
2021/03/28 06:05:07;;;;;;;12.50;6.30;;;;;;;8.01;55.78;101219.50;5047860;28;20041;-75
2021/03/28 06:08:22;;;;;;;15.60;7.72;;;;;;;7.98;55.93;101216.91;5068830;28;20481;-75
2021/03/28 06:11:29;;;;;;;15.90;8.15;;;;;;;7.94;55.71;101217.84;5032587;28;20095;-75
2021/03/28 06:14:21;;;;;;;24.73;12.00;;;;;;;7.94;55.63;101223.06;5069501;28;20393;-75
2021/03/28 06:17:07;;;;;;;38.22;19.75;;;;;;;7.91;55.50;101228.31;5071216;28;20213;-75
2021/03/28 06:20:17;;;;;;;19.83;11.32;;;;;;;7.94;55.78;101230.91;5071036;28;20132;-75
2021/03/28 06:23:21;;;;;;;12.32;7.60;;;;;;;7.89;55.67;101230.94;5066717;28;20460;-76
2021/03/28 06:26:20;;;;;;;12.50;7.63;;;;;;;8.03;55.24;101233.38;5069333;28;20056;-76
2021/03/28 06:29:27;;;;;;;12.55;7.28;;;;;;;7.94;55.39;101230.91;5067747;28;20143;-75
2021/03/28 06:32:26;;;;;;;12.82;6.70;;;;;;;8.11;55.07;101235.91;5066676;28;20055;-76
2021/03/28 06:35:33;;;;;;;9.85;6.32;;;;;;;8.05;55.04;101249.91;5076540;28;20060;-76
2021/03/28 06:38:29;;;;;;;13.48;8.02;;;;;;;8.02;54.89;101249.94;5072190;28;20512;-75
2021/03/28 06:41:14;;;;;;;12.50;7.43;;;;;;;7.83;55.04;101248.44;5069873;28;20535;-76
2021/03/28 06:44:01;;;;;;;16.02;8.05;;;;;;;7.82;55.29;101259.75;5067822;28;20040;-75
2021/03/28 06:46:52;;;;;;;13.80;8.05;;;;;;;7.99;54.84;101263.03;5066727;28;20124;-74
2021/03/28 06:49:48;;;;;;;14.65;8.77;;;;;;;8.31;53.85;101257.41;5018585;28;20049;-75
2021/03/28 06:52:27;;;;;;;17.00;8.50;;;;;;;8.61;53.38;101260.53;5064970;28;20084;-74
2021/03/28 06:55:30;;;;;;;13.77;8.60;;;;;;;8.73;53.13;101261.22;5067475;28;20056;-75
2021/03/28 06:58:30;;;;;;;13.18;8.05;;;;;;;8.88;53.07;101265.34;5062608;28;20511;-74
2021/03/28 07:01:50;;;;;;;11.20;8.23;;;;;;;9.09;52.54;101261.53;5066499;28;20063;-74
2021/03/28 07:04:48;;;;;;;10.63;7.53;;;;;;;8.96;52.95;101275.72;5022912;28;20143;-74
2021/03/28 07:07:37;;;;;;;13.40;8.13;;;;;;;9.02;52.91;101266.00;5067041;28;20434;-74
2021/03/28 07:10:25;;;;;;;14.25;7.68;;;;;;;9.27;52.22;101276.06;5062763;28;20110;-74
2021/03/28 07:13:30;;;;;;;13.68;7.80;;;;;;;9.74;51.01;101262.13;5067661;28;20072;-74
2021/03/28 07:16:15;;;;;;;11.95;7.25;;;;;;;9.92;50.56;101267.03;5067322;28;20044;-74
2021/03/28 07:19:05;;;;;;;12.32;7.00;;;;;;;9.96;50.81;101263.44;5068257;28;20093;-74
2021/03/28 07:21:48;;;;;;;13.25;7.20;;;;;;;10.35;49.74;101266.19;5071174;28;20041;-74
2021/03/28 07:25:04;;;;;;;14.48;8.80;;;;;;;10.91;48.71;101261.44;5069920;28;20155;-73
2021/03/28 07:27:51;;;;;;;16.75;9.32;;;;;;;12.58;45.70;101269.22;5061284;28;20053;-75
2021/03/28 07:30:52;;;;;;;11.20;7.05;;;;;;;13.90;43.53;101261.31;5070282;28;20135;-73
2021/03/28 07:33:53;;;;;;;11.43;6.38;;;;;;;15.65;40.46;101263.25;5068861;28;20139;-74
2021/03/28 07:36:45;;;;;;;7.90;5.80;;;;;;;15.64;40.30;101274.75;5065860;28;20080;-73
2021/03/28 07:39:36;;;;;;;10.55;6.65;;;;;;;15.98;39.56;101284.69;5030414;28;20099;-74
2021/03/28 07:42:22;;;;;;;10.10;6.93;;;;;;;15.16;40.50;101283.75;5066827;28;20082;-76
2021/03/28 07:45:20;;;;;;;10.57;6.75;;;;;;;15.50;39.80;101286.72;5061293;28;20044;-73
2021/03/28 07:48:25;;;;;;;10.65;6.30;;;;;;;15.60;39.64;101286.38;5067875;28;20041;-74
2021/03/28 07:51:15;;;;;;;13.60;6.22;;;;;;;18.30;35.13;101290.09;5069907;28;20059;-76
2021/03/28 07:54:26;;;;;;;13.23;7.03;;;;;;;22.00;29.95;101295.66;5066369;28;20131;-73
2021/03/28 07:57:19;;;;;;;11.32;7.20;;;;;;;21.55;30.52;101297.84;5065543;28;20056;-73
2021/03/28 08:00:00;;;;;;;11.48;6.50;;;;;;;20.42;31.93;101299.03;5063838;28;20445;-73
2021/03/28 08:02:55;;;;;;;9.05;5.60;;;;;;;18.68;34.44;101311.06;5066375;28;20483;-72
2021/03/28 08:05:45;;;;;;;11.57;6.75;;;;;;;17.98;35.04;101302.44;5065766;28;20058;-74
2021/03/28 08:08:26;;;;;;;11.77;6.47;;;;;;;20.90;30.51;101303.03;5067485;28;20143;-73
2021/03/28 08:11:08;;;;;;;;;;;;;;;20.52;32.84;101301.97;5070411;28;20052;-76
2021/03/28 08:14:10;;;;;;;8.13;5.88;;;;;;;24.33;27.25;101291.66;5070880;28;20351;-74
2021/03/28 08:17:06;;;;;;;8.18;5.72;;;;;;;28.08;22.47;101303.63;5058849;28;20048;-72
2021/03/28 08:20:01;;;;;;;9.32;5.55;;;;;;;26.17;23.89;101313.97;5045097;28;20052;-74
2021/03/28 08:22:45;;;;;;;9.88;5.00;;;;;;;23.52;26.74;101306.91;5068503;28;20488;-74
2021/03/28 08:25:41;;;;;;;7.30;4.90;;;;;;;22.36;28.51;101310.09;5068092;28;20050;-74
2021/03/28 08:31:10;;;;;;;8.52;6.20;;;;;;;22.25;27.54;101308.19;5136489;27;20415;-74
2021/03/28 08:34:12;;;;;;;12.20;5.78;;;;;;;21.91;27.58;101315.00;5122314;28;20184;-74
2021/03/28 08:36:52;;;;;;;10.10;6.57;;;;;;;20.80;28.68;101315.25;5124908;28;20168;-76
2021/03/28 08:39:30;;;;;;;8.23;5.70;;;;;;;21.29;28.48;101312.09;5125282;27;20062;-77
2021/03/28 08:42:34;;;;;;;10.32;5.97;;;;;;;23.52;25.49;101312.28;5123316;28;20040;-77
2021/03/28 08:45:15;;;;;;;9.63;4.95;;;;;;;25.23;23.14;101311.19;5124529;28;20046;-76
2021/03/28 08:48:04;;;;;;;7.25;4.38;;;;;;;27.06;21.74;101312.34;5120718;28;20131;-74
2021/03/28 08:50:40;;;;;;;9.15;4.88;;;;;;;26.06;22.01;101314.91;5118922;28;20532;-74
2021/03/28 08:53:43;;;;;;;8.00;5.05;;;;;;;24.41;24.49;101303.63;5126716;27;20406;-75
2021/03/28 08:56:31;;;;;;;7.85;4.88;;;;;;;23.78;24.80;101303.16;5122449;28;20061;-75
2021/03/28 08:59:11;;;;;;;8.07;5.13;;;;;;;22.64;25.97;101308.97;5118410;28;20502;-74
2021/03/28 09:01:45;;;;;;;9.30;5.50;;;;;;;21.54;26.92;101317.50;5123015;28;20134;-73
2021/03/28 09:04:18;;;;;;;6.95;4.63;;;;;;;20.97;27.51;101309.69;5121466;27;20055;-75
2021/03/28 09:06:51;;;;;;;6.60;5.07;;;;;;;19.96;28.10;101311.63;5115775;28;20040;-75
2021/03/28 09:09:41;;;;;;;8.32;5.13;;;;;;;19.29;29.10;101304.94;5120482;27;20116;-75
2021/03/28 09:12:32;;;;;;;7.28;5.60;;;;;;;20.92;27.05;101314.47;5095017;27;20063;-75
2021/03/28 09:15:20;;;;;;;16.15;5.95;;;;;;;22.75;25.04;101307.25;5121661;28;20221;-75
2021/03/28 09:17:59;;;;;;;9.23;4.88;;;;;;;25.42;21.54;101309.66;5115292;28;20086;-76
2021/03/28 09:20:46;;;;;;;6.05;4.35;;;;;;;27.00;20.42;101306.53;5118351;28;20111;-74
2021/03/28 09:23:26;;;;;;;6.88;4.95;;;;;;;27.77;19.19;101307.56;5125419;27;20100;-76
2021/03/28 09:26:00;;;;;;;8.50;5.10;;;;;;;25.83;20.91;101303.47;5116665;28;20107;-76
2021/03/28 09:28:39;;;;;;;9.55;5.28;;;;;;;24.60;22.02;101307.38;5121360;27;20087;-74
2021/03/28 09:31:12;;;;;;;7.18;5.47;;;;;;;22.39;24.68;101315.22;5127499;27;20542;-75
2021/03/28 09:33:53;;;;;;;7.95;4.90;;;;;;;20.31;26.52;101322.78;5117743;27;20044;-75
2021/03/28 09:36:34;;;;;;;7.47;4.57;;;;;;;22.56;24.21;101319.38;5121037;27;20108;-76
2021/03/28 09:39:20;;;;;;;8.25;5.00;;;;;;;23.59;22.83;101318.91;5127485;27;20077;-74
2021/03/28 09:42:37;;;;;;;10.45;6.28;;;;;;;24.46;22.04;101315.69;5111321;28;20548;-76
2021/03/28 09:45:36;;;;;;;7.47;4.35;;;;;;;26.35;20.03;101305.19;5105635;28;20471;-75
2021/03/28 09:48:20;;;;;;;6.25;5.00;;;;;;;27.52;18.74;101299.06;5110240;28;20082;-75
2021/03/28 09:51:00;;;;;;;9.73;4.93;;;;;;;27.34;18.86;101298.06;5112092;28;20124;-76
2021/03/28 09:53:38;;;;;;;5.80;3.93;;;;;;;25.22;20.10;101292.53;5113424;28;20181;-75
2021/03/28 09:56:39;;;;;;;10.15;5.10;;;;;;;22.55;22.80;101299.81;5109701;28;21106;-75
2021/03/28 09:59:25;;;;;;;8.13;4.40;;;;;;;22.13;23.60;101309.91;5087853;28;20055;-75
2021/03/28 10:02:14;;;;;;;7.93;4.13;;;;;;;21.22;24.80;101300.91;5111507;28;20491;-77
2021/03/28 10:05:01;;;;;;;8.98;4.47;;;;;;;19.50;26.24;101309.00;5110043;28;20043;-76
2021/03/28 10:07:37;;;;;;;7.20;4.05;;;;;;;18.53;27.70;101305.66;5112058;28;20184;-75
2021/03/28 10:10:19;;;;;;;7.22;4.60;;;;;;;18.00;27.96;101316.47;5100665;28;20139;-75
2021/03/28 10:12:53;;;;;;;7.63;4.88;;;;;;;17.57;28.46;101308.03;5099644;28;20036;-75
2021/03/28 10:15:21;;;;;;;8.73;5.10;;;;;;;17.33;29.34;101315.44;5109290;28;20048;-75
2021/03/28 10:17:56;;;;;;;9.88;4.95;;;;;;;17.48;28.88;101308.47;5111601;28;20040;-75
2021/03/28 10:20:58;;;;;;;8.43;4.90;;;;;;;17.92;28.43;101306.28;5112246;28;20063;-75
2021/03/28 10:23:39;;;;;;;8.60;4.13;;;;;;;18.43;27.65;101309.72;5112596;28;20078;-75
2021/03/28 10:26:23;;;;;;;8.35;4.55;;;;;;;18.63;27.26;101307.81;5109904;28;20051;-75
2021/03/28 10:29:33;;;;;;;9.13;4.35;;;;;;;18.59;27.31;101310.63;5112070;28;20051;-75
2021/03/28 10:32:14;;;;;;;8.30;3.80;;;;;;;18.40;27.78;101301.94;5062111;28;20090;-74
2021/03/28 10:35:01;;;;;;;9.05;4.50;;;;;;;18.33;27.39;101303.22;5106853;28;20105;-75
2021/03/28 10:37:40;;;;;;;11.00;5.15;;;;;;;17.69;28.26;101303.91;5093310;28;20137;-75
2021/03/28 10:40:34;;;;;;;10.90;4.18;;;;;;;17.37;28.62;101310.81;5102895;28;20048;-76
2021/03/28 10:43:18;;;;;;;8.02;4.63;;;;;;;17.15;29.09;101311.03;5112524;28;20070;-75
2021/03/28 10:46:13;;;;;;;11.40;4.97;;;;;;;16.48;29.97;101316.84;5113606;28;20192;-75
2021/03/28 10:49:09;;;;;;;11.73;5.93;;;;;;;15.74;31.36;101300.72;5115698;27;20431;-75
2021/03/28 10:52:17;;;;;;;7.70;4.28;;;;;;;15.67;31.46;101304.56;5113544;27;20055;-76
2021/03/28 10:55:12;;;;;;;8.50;4.50;;;;;;;15.84;31.03;101301.19;5112665;28;20075;-76
2021/03/28 10:58:31;;;;;;;6.18;3.53;;;;;;;16.12;30.42;101300.81;5113290;28;20554;-75
2021/03/28 11:01:43;;;;;;;13.90;6.07;;;;;;;16.14;30.17;101304.25;5108143;28;20047;-75
2021/03/28 11:04:51;;;;;;;8.57;4.28;;;;;;;16.17;30.29;101307.63;5094052;28;20136;-76
2021/03/28 11:07:46;;;;;;;5.95;3.50;;;;;;;15.54;30.80;101301.53;5111187;28;20043;-75
2021/03/28 11:10:45;;;;;;;7.00;4.07;;;;;;;15.41;30.91;101310.03;5113046;28;20083;-76
2021/03/28 11:13:57;;;;;;;11.25;5.82;;;;;;;15.63;30.82;101297.69;5112833;28;20554;-76
2021/03/28 11:16:33;;;;;;;;;;;;;;;15.90;30.56;101311.50;5113594;28;20047;-76
2021/03/28 11:19:37;;;;;;;10.15;6.10;;;;;;;15.85;30.73;101308.19;5112804;28;19927;-75
2021/03/28 11:22:12;;;;;;;11.13;6.05;;;;;;;15.96;30.68;101308.56;5112957;28;20138;-75
2021/03/28 11:25:04;;;;;;;10.30;5.38;;;;;;;16.04;30.37;101318.84;5113058;28;20043;-75
2021/03/28 11:28:11;;;;;;;5.47;3.85;;;;;;;16.02;30.25;101305.66;5112162;28;20456;-76
2021/03/28 11:30:40;;;;;;;9.05;5.15;;;;;;;16.02;29.86;101310.94;5112013;28;20135;-76
2021/03/28 11:33:21;;;;;;;9.88;5.25;;;;;;;15.57;30.91;101314.63;5112555;27;20047;-76
2021/03/28 11:36:09;;;;;;;8.00;4.78;;;;;;;15.44;31.42;101318.72;5109788;27;20475;-76
2021/03/28 11:38:40;;;;;;;6.70;4.15;;;;;;;15.31;31.41;101312.19;5115593;27;20071;-75
2021/03/28 11:41:33;;;;;;;8.02;4.82;;;;;;;15.07;31.82;101315.84;5117829;27;20050;-74
2021/03/28 11:44:12;;;;;;;7.80;4.45;;;;;;;15.03;31.61;101322.19;5110451;28;20493;-75
2021/03/28 11:46:51;;;;;;;9.02;5.20;;;;;;;14.73;32.05;101314.50;5111871;28;20039;-75
2021/03/28 11:49:19;;;;;;;11.00;5.30;;;;;;;14.82;31.92;101319.47;5111591;28;20114;-76
2021/03/28 11:52:13;;;;;;;7.68;4.57;;;;;;;15.13;31.61;101327.00;5111847;28;20075;-76
2021/03/28 11:54:42;;;;;;;11.13;4.15;;;;;;;15.36;31.15;101320.78;5112411;28;20045;-76
2021/03/28 11:57:26;;;;;;;8.20;4.25;;;;;;;15.55;30.92;101320.88;5111287;28;20048;-76
2021/03/28 11:59:55;;;;;;;7.47;3.63;;;;;;;15.89;30.52;101319.50;5112378;28;20163;-78
2021/03/28 12:02:27;;;;;;;10.93;5.20;;;;;;;15.65;30.56;101324.91;5111324;28;20043;-78
2021/03/28 12:05:37;;;;;;;7.32;4.55;;;;;;;15.77;30.39;101326.16;5112278;27;20064;-75
2021/03/28 12:08:09;;;;;;;6.20;4.00;;;;;;;15.50;30.71;101323.72;5065246;28;20055;-79
2021/03/28 12:10:37;;;;;;;8.50;4.10;;;;;;;15.50;30.60;101334.31;5111703;28;20398;-77
2021/03/28 12:13:30;;;;;;;10.85;4.47;;;;;;;15.43;31.03;101327.56;5114318;28;20040;-76
2021/03/28 12:16:02;;;;;;;6.55;4.75;;;;;;;15.32;30.83;101324.50;5082341;28;20092;-78
2021/03/28 12:18:39;;;;;;;12.93;4.70;;;;;;;15.10;30.99;101321.84;5091554;28;20488;-77
2021/03/28 12:21:29;;;;;;;6.72;4.03;;;;;;;14.97;31.41;101325.91;5110339;28;20097;-77
2021/03/28 12:24:00;;;;;;;5.60;4.13;;;;;;;14.99;31.19;101331.13;5110715;28;20478;-77
2021/03/28 12:26:31;;;;;;;7.35;3.83;;;;;;;15.02;30.95;101326.59;5111915;28;20150;-76
2021/03/28 12:28:59;;;;;;;;;;;;;;;15.22;30.80;101324.03;5109910;27;20044;-76
2021/03/28 12:31:31;;;;;;;5.43;4.00;;;;;;;14.87;31.26;101328.06;5111626;28;19947;-77
2021/03/28 12:34:16;;;;;;;6.43;4.32;;;;;;;14.74;31.49;101337.34;5111567;28;20482;-74
2021/03/28 12:36:56;;;;;;;9.20;5.25;;;;;;;14.65;31.56;101335.06;5111566;28;20143;-74
2021/03/28 12:39:24;;;;;;;10.30;4.47;;;;;;;14.33;32.46;101339.72;5111506;28;20066;-75
2021/03/28 12:42:23;;;;;;;7.28;4.45;;;;;;;14.24;32.54;101331.31;5111823;28;20044;-77
2021/03/28 12:44:50;;;;;;;10.07;5.97;;;;;;;14.41;32.16;101344.75;5073194;28;20051;-78
2021/03/28 12:47:25;;;;;;;10.27;5.68;;;;;;;14.31;32.35;101338.91;5111953;28;20401;-76
2021/03/28 12:49:59;;;;;;;9.35;5.72;;;;;;;14.33;32.70;101331.81;5111452;28;20189;-77
2021/03/28 12:52:38;;;;;;;11.20;6.95;;;;;;;14.54;32.52;101340.75;5111002;28;20475;-74
2021/03/28 12:55:11;;;;;;;11.05;5.35;;;;;;;14.57;32.14;101329.22;5107221;28;20131;-76